sensor_id;sensor_type;location;lat;lon;timestamp;P1;durP1;ratioP1;P2;durP2;ratioP2
55053;SDS011;40954;45.668;18.980;2023-09-18T00:01:50;9.85;;;7.70;;
55053;SDS011;40954;45.668;18.980;2023-09-18T00:04:16;9.45;;;8.60;;
55053;SDS011;40954;45.668;18.980;2023-09-18T00:06:43;8.63;;;7.82;;
55053;SDS011;40954;45.668;18.980;2023-09-18T00:09:09;10.15;;;7.10;;
55053;SDS011;40954;45.668;18.980;2023-09-18T00:11:38;11.10;;;7.78;;
55053;SDS011;40954;45.668;18.980;2023-09-18T00:14:04;13.60;;;8.95;;
55053;SDS011;40954;45.668;18.980;2023-09-18T00:16:30;9.45;;;8.38;;
55053;SDS011;40954;45.668;18.980;2023-09-18T00:18:57;7.88;;;7.13;;
55053;SDS011;40954;45.668;18.980;2023-09-18T00:21:23;9.18;;;8.13;;
55053;SDS011;40954;45.668;18.980;2023-09-18T00:23:50;8.90;;;7.03;;
55053;SDS011;40954;45.668;18.980;2023-09-18T00:26:16;8.10;;;7.35;;
55053;SDS011;40954;45.668;18.980;2023-09-18T00:28:43;8.23;;;7.43;;
55053;SDS011;40954;45.668;18.980;2023-09-18T00:31:09;7.85;;;7.03;;
55053;SDS011;40954;45.668;18.980;2023-09-18T00:33:35;9.70;;;7.65;;
55053;SDS011;40954;45.668;18.980;2023-09-18T00:36:01;8.98;;;7.35;;
55053;SDS011;40954;45.668;18.980;2023-09-18T00:38:28;7.93;;;7.20;;
55053;SDS011;40954;45.668;18.980;2023-09-18T00:40:54;7.82;;;7.03;;
55053;SDS011;40954;45.668;18.980;2023-09-18T00:43:20;7.93;;;7.22;;
55053;SDS011;40954;45.668;18.980;2023-09-18T00:45:46;9.00;;;7.35;;
55053;SDS011;40954;45.668;18.980;2023-09-18T00:48:16;7.95;;;7.15;;
55053;SDS011;40954;45.668;18.980;2023-09-18T00:50:45;10.48;;;9.43;;
55053;SDS011;40954;45.668;18.980;2023-09-18T00:53:20;8.98;;;8.07;;
55053;SDS011;40954;45.668;18.980;2023-09-18T00:55:46;11.10;;;8.38;;
55053;SDS011;40954;45.668;18.980;2023-09-18T00:58:12;7.65;;;6.90;;
55053;SDS011;40954;45.668;18.980;2023-09-18T01:00:39;8.88;;;7.43;;
55053;SDS011;40954;45.668;18.980;2023-09-18T01:03:06;7.95;;;7.20;;
55053;SDS011;40954;45.668;18.980;2023-09-18T01:05:32;9.75;;;7.28;;
55053;SDS011;40954;45.668;18.980;2023-09-18T01:07:58;7.60;;;6.93;;
55053;SDS011;40954;45.668;18.980;2023-09-18T01:10:24;9.57;;;7.28;;
55053;SDS011;40954;45.668;18.980;2023-09-18T01:13:27;10.05;;;6.82;;
55053;SDS011;40954;45.668;18.980;2023-09-18T01:15:54;12.60;;;8.68;;
55053;SDS011;40954;45.668;18.980;2023-09-18T01:18:20;10.98;;;8.55;;
55053;SDS011;40954;45.668;18.980;2023-09-18T01:20:46;10.60;;;8.73;;
55053;SDS011;40954;45.668;18.980;2023-09-18T01:23:12;12.02;;;8.52;;
55053;SDS011;40954;45.668;18.980;2023-09-18T01:25:38;11.93;;;10.00;;
55053;SDS011;40954;45.668;18.980;2023-09-18T01:28:04;13.70;;;9.27;;
55053;SDS011;40954;45.668;18.980;2023-09-18T01:30:30;11.05;;;8.27;;
55053;SDS011;40954;45.668;18.980;2023-09-18T01:32:57;10.23;;;9.20;;
55053;SDS011;40954;45.668;18.980;2023-09-18T01:35:24;10.10;;;9.10;;
55053;SDS011;40954;45.668;18.980;2023-09-18T01:37:55;15.07;;;9.90;;
55053;SDS011;40954;45.668;18.980;2023-09-18T01:40:21;11.30;;;8.90;;
55053;SDS011;40954;45.668;18.980;2023-09-18T01:42:48;14.20;;;8.80;;
55053;SDS011;40954;45.668;18.980;2023-09-18T01:45:14;12.75;;;10.07;;
55053;SDS011;40954;45.668;18.980;2023-09-18T01:47:40;15.40;;;8.95;;
55053;SDS011;40954;45.668;18.980;2023-09-18T01:50:06;11.23;;;9.93;;
55053;SDS011;40954;45.668;18.980;2023-09-18T01:52:33;13.23;;;9.38;;
55053;SDS011;40954;45.668;18.980;2023-09-18T01:55:00;10.20;;;9.10;;
55053;SDS011;40954;45.668;18.980;2023-09-18T01:57:26;15.13;;;8.55;;
55053;SDS011;40954;45.668;18.980;2023-09-18T01:59:52;15.35;;;9.98;;
55053;SDS011;40954;45.668;18.980;2023-09-18T02:02:18;11.07;;;9.43;;
55053;SDS011;40954;45.668;18.980;2023-09-18T02:04:44;9.82;;;8.82;;
55053;SDS011;40954;45.668;18.980;2023-09-18T02:07:10;11.77;;;10.57;;
55053;SDS011;40954;45.668;18.980;2023-09-18T02:09:36;11.35;;;9.88;;
55053;SDS011;40954;45.668;18.980;2023-09-18T02:12:02;12.73;;;9.50;;
55053;SDS011;40954;45.668;18.980;2023-09-18T02:14:29;11.20;;;10.10;;
55053;SDS011;40954;45.668;18.980;2023-09-18T02:16:56;10.30;;;9.13;;
55053;SDS011;40954;45.668;18.980;2023-09-18T02:19:22;11.77;;;9.65;;
55053;SDS011;40954;45.668;18.980;2023-09-18T02:21:48;13.20;;;10.05;;
55053;SDS011;40954;45.668;18.980;2023-09-18T02:24:14;10.88;;;9.43;;
55053;SDS011;40954;45.668;18.980;2023-09-18T02:26:40;10.45;;;9.05;;
55053;SDS011;40954;45.668;18.980;2023-09-18T02:29:08;10.23;;;9.15;;
55053;SDS011;40954;45.668;18.980;2023-09-18T02:31:36;11.52;;;9.68;;
55053;SDS011;40954;45.668;18.980;2023-09-18T02:34:02;10.32;;;8.20;;
55053;SDS011;40954;45.668;18.980;2023-09-18T02:36:28;14.30;;;8.98;;
55053;SDS011;40954;45.668;18.980;2023-09-18T02:38:54;12.32;;;9.95;;
55053;SDS011;40954;45.668;18.980;2023-09-18T02:41:20;10.48;;;9.48;;
55053;SDS011;40954;45.668;18.980;2023-09-18T02:43:46;10.80;;;9.75;;
55053;SDS011;40954;45.668;18.980;2023-09-18T02:46:12;10.40;;;9.27;;
55053;SDS011;40954;45.668;18.980;2023-09-18T02:48:38;10.73;;;9.60;;
55053;SDS011;40954;45.668;18.980;2023-09-18T02:51:04;12.32;;;9.75;;
55053;SDS011;40954;45.668;18.980;2023-09-18T02:53:30;9.55;;;8.45;;
55053;SDS011;40954;45.668;18.980;2023-09-18T02:55:58;11.23;;;9.18;;
55053;SDS011;40954;45.668;18.980;2023-09-18T02:58:24;11.02;;;9.90;;
55053;SDS011;40954;45.668;18.980;2023-09-18T03:00:51;10.38;;;8.85;;
55053;SDS011;40954;45.668;18.980;2023-09-18T03:03:18;12.15;;;9.68;;
55053;SDS011;40954;45.668;18.980;2023-09-18T03:05:44;10.23;;;8.98;;
55053;SDS011;40954;45.668;18.980;2023-09-18T03:08:11;11.73;;;10.52;;
55053;SDS011;40954;45.668;18.980;2023-09-18T03:10:40;11.63;;;10.00;;
55053;SDS011;40954;45.668;18.980;2023-09-18T03:13:08;10.77;;;9.70;;
55053;SDS011;40954;45.668;18.980;2023-09-18T03:15:34;11.70;;;10.48;;
55053;SDS011;40954;45.668;18.980;2023-09-18T03:18:01;13.85;;;9.85;;
55053;SDS011;40954;45.668;18.980;2023-09-18T03:20:28;10.43;;;9.43;;
55053;SDS011;40954;45.668;18.980;2023-09-18T03:22:55;10.75;;;9.70;;
55053;SDS011;40954;45.668;18.980;2023-09-18T03:25:21;10.68;;;9.73;;
55053;SDS011;40954;45.668;18.980;2023-09-18T03:27:48;11.38;;;10.27;;
55053;SDS011;40954;45.668;18.980;2023-09-18T03:30:14;11.00;;;9.70;;
55053;SDS011;40954;45.668;18.980;2023-09-18T03:32:43;10.73;;;9.07;;
55053;SDS011;40954;45.668;18.980;2023-09-18T03:35:10;10.85;;;9.75;;
55053;SDS011;40954;45.668;18.980;2023-09-18T03:40:08;11.52;;;9.63;;
55053;SDS011;40954;45.668;18.980;2023-09-18T03:42:35;9.40;;;8.50;;
55053;SDS011;40954;45.668;18.980;2023-09-18T03:45:01;11.02;;;8.52;;
55053;SDS011;40954;45.668;18.980;2023-09-18T03:47:28;10.45;;;9.43;;
55053;SDS011;40954;45.668;18.980;2023-09-18T03:49:54;12.95;;;10.32;;
55053;SDS011;40954;45.668;18.980;2023-09-18T03:52:20;10.75;;;9.57;;
55053;SDS011;40954;45.668;18.980;2023-09-18T03:54:46;10.38;;;9.27;;
55053;SDS011;40954;45.668;18.980;2023-09-18T03:57:12;11.73;;;10.38;;
55053;SDS011;40954;45.668;18.980;2023-09-18T03:59:38;15.00;;;9.68;;
55053;SDS011;40954;45.668;18.980;2023-09-18T04:02:04;11.73;;;10.63;;
55053;SDS011;40954;45.668;18.980;2023-09-18T04:04:31;10.93;;;9.82;;
55053;SDS011;40954;45.668;18.980;2023-09-18T04:06:57;10.85;;;9.60;;
55053;SDS011;40954;45.668;18.980;2023-09-18T04:09:23;10.57;;;9.48;;
55053;SDS011;40954;45.668;18.980;2023-09-18T04:11:49;11.70;;;10.60;;
55053;SDS011;40954;45.668;18.980;2023-09-18T04:14:15;16.52;;;10.25;;
55053;SDS011;40954;45.668;18.980;2023-09-18T04:16:42;10.15;;;9.00;;
55053;SDS011;40954;45.668;18.980;2023-09-18T04:19:09;10.80;;;9.40;;
55053;SDS011;40954;45.668;18.980;2023-09-18T04:21:35;14.63;;;10.60;;
55053;SDS011;40954;45.668;18.980;2023-09-18T04:24:01;10.75;;;9.63;;
55053;SDS011;40954;45.668;18.980;2023-09-18T04:26:27;14.13;;;10.07;;
55053;SDS011;40954;45.668;18.980;2023-09-18T04:28:59;10.88;;;9.77;;
55053;SDS011;40954;45.668;18.980;2023-09-18T04:31:25;11.70;;;10.50;;
55053;SDS011;40954;45.668;18.980;2023-09-18T04:33:52;12.20;;;11.00;;
55053;SDS011;40954;45.668;18.980;2023-09-18T04:36:18;14.60;;;10.57;;
55053;SDS011;40954;45.668;18.980;2023-09-18T04:38:44;11.32;;;10.15;;
55053;SDS011;40954;45.668;18.980;2023-09-18T04:41:10;11.73;;;10.52;;
55053;SDS011;40954;45.668;18.980;2023-09-18T04:43:37;12.52;;;10.88;;
55053;SDS011;40954;45.668;18.980;2023-09-18T04:46:03;12.65;;;11.38;;
55053;SDS011;40954;45.668;18.980;2023-09-18T04:48:30;13.70;;;11.00;;
55053;SDS011;40954;45.668;18.980;2023-09-18T04:50:57;13.77;;;9.55;;
55053;SDS011;40954;45.668;18.980;2023-09-18T04:53:23;11.88;;;9.35;;
55053;SDS011;40954;45.668;18.980;2023-09-18T04:55:49;9.40;;;8.45;;
55053;SDS011;40954;45.668;18.980;2023-09-18T04:58:19;10.50;;;9.35;;
55053;SDS011;40954;45.668;18.980;2023-09-18T05:00:45;12.60;;;9.02;;
55053;SDS011;40954;45.668;18.980;2023-09-18T05:03:14;21.25;;;9.30;;
55053;SDS011;40954;45.668;18.980;2023-09-18T05:05:40;15.63;;;9.18;;
55053;SDS011;40954;45.668;18.980;2023-09-18T05:08:07;13.98;;;10.40;;
55053;SDS011;40954;45.668;18.980;2023-09-18T05:10:33;11.52;;;9.45;;
55053;SDS011;40954;45.668;18.980;2023-09-18T05:12:59;13.50;;;10.40;;
55053;SDS011;40954;45.668;18.980;2023-09-18T05:15:26;12.40;;;10.75;;
55053;SDS011;40954;45.668;18.980;2023-09-18T05:17:54;12.82;;;10.73;;
55053;SDS011;40954;45.668;18.980;2023-09-18T05:20:22;12.73;;;10.00;;
55053;SDS011;40954;45.668;18.980;2023-09-18T05:22:52;11.02;;;9.80;;
55053;SDS011;40954;45.668;18.980;2023-09-18T05:25:18;12.63;;;11.27;;
55053;SDS011;40954;45.668;18.980;2023-09-18T05:27:46;15.23;;;11.68;;
55053;SDS011;40954;45.668;18.980;2023-09-18T05:30:19;12.70;;;10.10;;
55053;SDS011;40954;45.668;18.980;2023-09-18T05:32:48;10.77;;;9.65;;
55053;SDS011;40954;45.668;18.980;2023-09-18T05:35:14;10.82;;;7.97;;
55053;SDS011;40954;45.668;18.980;2023-09-18T05:37:41;12.70;;;11.38;;
55053;SDS011;40954;45.668;18.980;2023-09-18T05:40:09;11.32;;;9.55;;
55053;SDS011;40954;45.668;18.980;2023-09-18T05:42:38;12.18;;;11.07;;
55053;SDS011;40954;45.668;18.980;2023-09-18T05:45:08;14.23;;;12.40;;
55053;SDS011;40954;45.668;18.980;2023-09-18T05:47:34;9.10;;;8.20;;
55053;SDS011;40954;45.668;18.980;2023-09-18T05:50:04;17.38;;;14.90;;
55053;SDS011;40954;45.668;18.980;2023-09-18T05:52:31;23.13;;;15.93;;
55053;SDS011;40954;45.668;18.980;2023-09-18T05:54:58;22.70;;;17.25;;
55053;SDS011;40954;45.668;18.980;2023-09-18T05:57:24;22.27;;;16.02;;
55053;SDS011;40954;45.668;18.980;2023-09-18T05:59:52;17.00;;;14.60;;
55053;SDS011;40954;45.668;18.980;2023-09-18T06:02:18;12.27;;;9.75;;
55053;SDS011;40954;45.668;18.980;2023-09-18T06:04:45;14.40;;;12.70;;
55053;SDS011;40954;45.668;18.980;2023-09-18T06:07:12;12.02;;;10.82;;
55053;SDS011;40954;45.668;18.980;2023-09-18T06:09:38;14.05;;;12.13;;
55053;SDS011;40954;45.668;18.980;2023-09-18T06:12:04;10.60;;;9.60;;
55053;SDS011;40954;45.668;18.980;2023-09-18T06:14:31;12.63;;;9.52;;
55053;SDS011;40954;45.668;18.980;2023-09-18T06:17:00;14.25;;;12.32;;
55053;SDS011;40954;45.668;18.980;2023-09-18T06:19:26;13.95;;;12.52;;
55053;SDS011;40954;45.668;18.980;2023-09-18T06:21:52;14.27;;;12.80;;
55053;SDS011;40954;45.668;18.980;2023-09-18T06:24:18;9.80;;;8.82;;
55053;SDS011;40954;45.668;18.980;2023-09-18T06:26:44;15.68;;;11.85;;
55053;SDS011;40954;45.668;18.980;2023-09-18T06:29:10;11.07;;;9.88;;
55053;SDS011;40954;45.668;18.980;2023-09-18T06:31:36;13.50;;;12.20;;
55053;SDS011;40954;45.668;18.980;2023-09-18T06:34:02;14.68;;;12.50;;
55053;SDS011;40954;45.668;18.980;2023-09-18T06:36:28;12.68;;;11.15;;
55053;SDS011;40954;45.668;18.980;2023-09-18T06:38:54;15.27;;;12.80;;
55053;SDS011;40954;45.668;18.980;2023-09-18T06:41:20;15.80;;;13.25;;
55053;SDS011;40954;45.668;18.980;2023-09-18T06:43:46;14.10;;;12.70;;
55053;SDS011;40954;45.668;18.980;2023-09-18T06:46:12;15.75;;;11.00;;
55053;SDS011;40954;45.668;18.980;2023-09-18T06:48:38;13.30;;;10.68;;
55053;SDS011;40954;45.668;18.980;2023-09-18T06:51:04;13.52;;;12.23;;
55053;SDS011;40954;45.668;18.980;2023-09-18T06:53:31;12.50;;;10.35;;
55053;SDS011;40954;45.668;18.980;2023-09-18T06:55:57;15.82;;;11.98;;
55053;SDS011;40954;45.668;18.980;2023-09-18T06:58:24;14.43;;;12.93;;
55053;SDS011;40954;45.668;18.980;2023-09-18T07:00:50;13.77;;;12.32;;
55053;SDS011;40954;45.668;18.980;2023-09-18T07:03:16;13.80;;;12.05;;
55053;SDS011;40954;45.668;18.980;2023-09-18T07:05:43;12.15;;;9.10;;
55053;SDS011;40954;45.668;18.980;2023-09-18T07:08:09;10.93;;;8.80;;
55053;SDS011;40954;45.668;18.980;2023-09-18T07:10:37;13.80;;;11.82;;
55053;SDS011;40954;45.668;18.980;2023-09-18T07:13:03;9.82;;;8.82;;
55053;SDS011;40954;45.668;18.980;2023-09-18T07:15:29;16.45;;;12.13;;
55053;SDS011;40954;45.668;18.980;2023-09-18T07:17:55;13.40;;;12.13;;
55053;SDS011;40954;45.668;18.980;2023-09-18T07:20:21;14.82;;;12.45;;
55053;SDS011;40954;45.668;18.980;2023-09-18T07:22:49;10.45;;;9.52;;
55053;SDS011;40954;45.668;18.980;2023-09-18T07:25:15;13.20;;;12.00;;
55053;SDS011;40954;45.668;18.980;2023-09-18T07:27:42;15.00;;;12.48;;
55053;SDS011;40954;45.668;18.980;2023-09-18T07:30:11;11.43;;;10.23;;
55053;SDS011;40954;45.668;18.980;2023-09-18T07:32:41;12.00;;;10.60;;
55053;SDS011;40954;45.668;18.980;2023-09-18T07:35:08;13.50;;;11.77;;
55053;SDS011;40954;45.668;18.980;2023-09-18T07:37:34;9.98;;;8.85;;
55053;SDS011;40954;45.668;18.980;2023-09-18T07:40:01;15.25;;;13.73;;
55053;SDS011;40954;45.668;18.980;2023-09-18T07:42:27;16.70;;;9.70;;
55053;SDS011;40954;45.668;18.980;2023-09-18T07:44:53;10.55;;;9.48;;
55053;SDS011;40954;45.668;18.980;2023-09-18T07:47:20;19.20;;;14.32;;
55053;SDS011;40954;45.668;18.980;2023-09-18T07:49:47;17.95;;;14.50;;
55053;SDS011;40954;45.668;18.980;2023-09-18T07:52:13;14.23;;;10.70;;
55053;SDS011;40954;45.668;18.980;2023-09-18T07:54:40;12.30;;;11.00;;
55053;SDS011;40954;45.668;18.980;2023-09-18T07:57:06;13.38;;;10.90;;
55053;SDS011;40954;45.668;18.980;2023-09-18T07:59:34;10.88;;;9.77;;
55053;SDS011;40954;45.668;18.980;2023-09-18T08:02:01;12.18;;;10.00;;
55053;SDS011;40954;45.668;18.980;2023-09-18T08:04:27;10.10;;;9.00;;
55053;SDS011;40954;45.668;18.980;2023-09-18T08:06:56;11.32;;;8.90;;
55053;SDS011;40954;45.668;18.980;2023-09-18T08:09:22;9.95;;;8.95;;
55053;SDS011;40954;45.668;18.980;2023-09-18T08:11:47;12.10;;;9.30;;
55053;SDS011;40954;45.668;18.980;2023-09-18T08:14:14;11.70;;;9.25;;
55053;SDS011;40954;45.668;18.980;2023-09-18T08:16:41;11.43;;;9.10;;
55053;SDS011;40954;45.668;18.980;2023-09-18T08:19:07;10.05;;;8.85;;
55053;SDS011;40954;45.668;18.980;2023-09-18T08:21:32;9.55;;;8.70;;
55053;SDS011;40954;45.668;18.980;2023-09-18T08:23:58;10.05;;;8.55;;
55053;SDS011;40954;45.668;18.980;2023-09-18T08:26:24;8.00;;;7.30;;
55053;SDS011;40954;45.668;18.980;2023-09-18T08:28:53;9.43;;;8.52;;
55053;SDS011;40954;45.668;18.980;2023-09-18T08:31:19;11.23;;;7.97;;
55053;SDS011;40954;45.668;18.980;2023-09-18T08:33:45;10.40;;;8.13;;
55053;SDS011;40954;45.668;18.980;2023-09-18T08:36:11;8.77;;;7.97;;
55053;SDS011;40954;45.668;18.980;2023-09-18T08:38:36;9.48;;;8.60;;
55053;SDS011;40954;45.668;18.980;2023-09-18T08:41:02;19.25;;;8.15;;
55053;SDS011;40954;45.668;18.980;2023-09-18T08:43:30;22.63;;;8.15;;
55053;SDS011;40954;45.668;18.980;2023-09-18T08:45:57;24.88;;;8.02;;
55053;SDS011;40954;45.668;18.980;2023-09-18T08:48:26;13.85;;;7.75;;
55053;SDS011;40954;45.668;18.980;2023-09-18T08:51:03;11.25;;;7.15;;
55053;SDS011;40954;45.668;18.980;2023-09-18T08:53:31;10.07;;;7.70;;
55053;SDS011;40954;45.668;18.980;2023-09-18T08:55:57;8.05;;;7.25;;
55053;SDS011;40954;45.668;18.980;2023-09-18T08:58:26;8.43;;;7.63;;
55053;SDS011;40954;45.668;18.980;2023-09-18T09:00:55;8.68;;;7.78;;
55053;SDS011;40954;45.668;18.980;2023-09-18T09:03:23;10.82;;;7.72;;
55053;SDS011;40954;45.668;18.980;2023-09-18T09:05:49;15.15;;;8.40;;
55053;SDS011;40954;45.668;18.980;2023-09-18T09:08:15;8.65;;;7.95;;
55053;SDS011;40954;45.668;18.980;2023-09-18T09:10:41;9.18;;;8.25;;
55053;SDS011;40954;45.668;18.980;2023-09-18T09:13:07;11.25;;;9.48;;
55053;SDS011;40954;45.668;18.980;2023-09-18T09:15:34;12.57;;;8.55;;
55053;SDS011;40954;45.668;18.980;2023-09-18T09:18:12;10.00;;;8.95;;
55053;SDS011;40954;45.668;18.980;2023-09-18T09:20:40;11.20;;;10.10;;
55053;SDS011;40954;45.668;18.980;2023-09-18T09:23:08;17.75;;;9.40;;
55053;SDS011;40954;45.668;18.980;2023-09-18T09:25:35;11.07;;;9.10;;
55053;SDS011;40954;45.668;18.980;2023-09-18T09:28:04;9.88;;;8.00;;
55053;SDS011;40954;45.668;18.980;2023-09-18T09:30:31;10.65;;;9.50;;
55053;SDS011;40954;45.668;18.980;2023-09-18T09:32:58;9.10;;;8.23;;
55053;SDS011;40954;45.668;18.980;2023-09-18T09:35:27;9.38;;;8.52;;
55053;SDS011;40954;45.668;18.980;2023-09-18T09:37:58;11.05;;;9.55;;
55053;SDS011;40954;45.668;18.980;2023-09-18T09:40:32;11.05;;;9.95;;
55053;SDS011;40954;45.668;18.980;2023-09-18T09:43:00;9.68;;;8.73;;
55053;SDS011;40954;45.668;18.980;2023-09-18T09:45:31;9.15;;;8.30;;
55053;SDS011;40954;45.668;18.980;2023-09-18T09:48:00;10.57;;;9.55;;
55053;SDS011;40954;45.668;18.980;2023-09-18T09:50:27;10.02;;;9.13;;
55053;SDS011;40954;45.668;18.980;2023-09-18T09:52:54;9.98;;;8.80;;
55053;SDS011;40954;45.668;18.980;2023-09-18T09:55:32;9.45;;;8.55;;
55053;SDS011;40954;45.668;18.980;2023-09-18T09:58:02;13.07;;;8.00;;
55053;SDS011;40954;45.668;18.980;2023-09-18T10:00:33;8.52;;;7.82;;
55053;SDS011;40954;45.668;18.980;2023-09-18T10:03:15;18.83;;;8.48;;
55053;SDS011;40954;45.668;18.980;2023-09-18T10:05:45;16.38;;;7.82;;
55053;SDS011;40954;45.668;18.980;2023-09-18T10:08:17;8.82;;;7.78;;
55053;SDS011;40954;45.668;18.980;2023-09-18T10:10:48;9.35;;;7.60;;
55053;SDS011;40954;45.668;18.980;2023-09-18T10:16:16;8.38;;;7.55;;
55053;SDS011;40954;45.668;18.980;2023-09-18T10:18:46;8.57;;;7.87;;
55053;SDS011;40954;45.668;18.980;2023-09-18T10:24:32;10.80;;;7.65;;
55053;SDS011;40954;45.668;18.980;2023-09-18T10:27:02;8.10;;;7.30;;
55053;SDS011;40954;45.668;18.980;2023-09-18T10:29:30;13.07;;;7.72;;
55053;SDS011;40954;45.668;18.980;2023-09-18T10:31:56;10.73;;;7.72;;
55053;SDS011;40954;45.668;18.980;2023-09-18T10:34:23;8.30;;;7.40;;
55053;SDS011;40954;45.668;18.980;2023-09-18T10:36:50;9.20;;;7.25;;
55053;SDS011;40954;45.668;18.980;2023-09-18T10:39:16;9.30;;;6.95;;
55053;SDS011;40954;45.668;18.980;2023-09-18T10:41:49;8.52;;;7.45;;
55053;SDS011;40954;45.668;18.980;2023-09-18T10:44:17;8.32;;;7.10;;
55053;SDS011;40954;45.668;18.980;2023-09-18T10:46:47;10.70;;;6.95;;
55053;SDS011;40954;45.668;18.980;2023-09-18T10:49:14;11.40;;;6.90;;
55053;SDS011;40954;45.668;18.980;2023-09-18T10:51:41;11.57;;;7.03;;
55053;SDS011;40954;45.668;18.980;2023-09-18T10:54:10;8.55;;;6.82;;
55053;SDS011;40954;45.668;18.980;2023-09-18T10:56:40;7.70;;;6.97;;
55053;SDS011;40954;45.668;18.980;2023-09-18T10:59:07;10.55;;;7.07;;
55053;SDS011;40954;45.668;18.980;2023-09-18T11:01:37;8.35;;;7.30;;
55053;SDS011;40954;45.668;18.980;2023-09-18T11:04:03;7.95;;;7.15;;
55053;SDS011;40954;45.668;18.980;2023-09-18T11:09:32;7.88;;;7.28;;
55053;SDS011;40954;45.668;18.980;2023-09-18T11:12:06;9.15;;;8.15;;
55053;SDS011;40954;45.668;18.980;2023-09-18T11:22:40;7.10;;;6.60;;
55053;SDS011;40954;45.668;18.980;2023-09-18T11:25:35;8.13;;;7.25;;
55053;SDS011;40954;45.668;18.980;2023-09-18T11:28:08;8.43;;;7.35;;
55053;SDS011;40954;45.668;18.980;2023-09-18T11:30:48;7.32;;;6.63;;
55053;SDS011;40954;45.668;18.980;2023-09-18T11:33:38;8.23;;;7.60;;
55053;SDS011;40954;45.668;18.980;2023-09-18T11:36:11;8.43;;;7.72;;
55053;SDS011;40954;45.668;18.980;2023-09-18T11:38:58;7.10;;;6.45;;
55053;SDS011;40954;45.668;18.980;2023-09-18T11:41:29;10.57;;;7.68;;
55053;SDS011;40954;45.668;18.980;2023-09-18T11:46:47;8.55;;;6.88;;
55053;SDS011;40954;45.668;18.980;2023-09-18T11:49:19;7.20;;;6.50;;
55053;SDS011;40954;45.668;18.980;2023-09-18T11:51:52;7.97;;;7.38;;
55053;SDS011;40954;45.668;18.980;2023-09-18T11:54:19;9.35;;;8.02;;
55053;SDS011;40954;45.668;18.980;2023-09-18T11:56:46;9.93;;;7.75;;
55053;SDS011;40954;45.668;18.980;2023-09-18T11:59:12;10.32;;;7.25;;
55053;SDS011;40954;45.668;18.980;2023-09-18T12:01:38;14.57;;;7.65;;
55053;SDS011;40954;45.668;18.980;2023-09-18T12:04:04;8.02;;;7.22;;
55053;SDS011;40954;45.668;18.980;2023-09-18T12:06:38;7.57;;;6.97;;
55053;SDS011;40954;45.668;18.980;2023-09-18T12:09:05;7.20;;;6.60;;
55053;SDS011;40954;45.668;18.980;2023-09-18T12:11:32;11.27;;;7.10;;
55053;SDS011;40954;45.668;18.980;2023-09-18T12:14:04;8.18;;;7.47;;
55053;SDS011;40954;45.668;18.980;2023-09-18T12:16:30;7.97;;;7.10;;
55053;SDS011;40954;45.668;18.980;2023-09-18T12:19:03;9.93;;;7.13;;
55053;SDS011;40954;45.668;18.980;2023-09-18T12:21:31;7.47;;;6.78;;
55053;SDS011;40954;45.668;18.980;2023-09-18T12:23:57;7.60;;;7.00;;
55053;SDS011;40954;45.668;18.980;2023-09-18T12:26:22;7.18;;;6.45;;
55053;SDS011;40954;45.668;18.980;2023-09-18T12:28:51;7.30;;;6.60;;
55053;SDS011;40954;45.668;18.980;2023-09-18T12:31:16;9.52;;;7.88;;
55053;SDS011;40954;45.668;18.980;2023-09-18T12:33:43;8.57;;;6.88;;
55053;SDS011;40954;45.668;18.980;2023-09-18T12:36:09;8.10;;;6.75;;
55053;SDS011;40954;45.668;18.980;2023-09-18T12:38:36;10.32;;;6.35;;
55053;SDS011;40954;45.668;18.980;2023-09-18T12:41:03;7.05;;;6.45;;
55053;SDS011;40954;45.668;18.980;2023-09-18T12:43:35;7.35;;;6.70;;
55053;SDS011;40954;45.668;18.980;2023-09-18T12:46:03;9.07;;;7.07;;
55053;SDS011;40954;45.668;18.980;2023-09-18T12:48:30;10.43;;;7.07;;
55053;SDS011;40954;45.668;18.980;2023-09-18T12:51:01;7.63;;;6.40;;
55053;SDS011;40954;45.668;18.980;2023-09-18T12:53:29;15.93;;;7.65;;
55053;SDS011;40954;45.668;18.980;2023-09-18T12:55:54;12.27;;;7.05;;
55053;SDS011;40954;45.668;18.980;2023-09-18T12:58:40;8.05;;;6.18;;
55053;SDS011;40954;45.668;18.980;2023-09-18T13:01:07;11.80;;;6.55;;
55053;SDS011;40954;45.668;18.980;2023-09-18T13:03:44;8.73;;;7.38;;
55053;SDS011;40954;45.668;18.980;2023-09-18T13:06:17;7.60;;;6.82;;
55053;SDS011;40954;45.668;18.980;2023-09-18T13:08:44;7.83;;;7.03;;
55053;SDS011;40954;45.668;18.980;2023-09-18T13:11:10;8.13;;;6.10;;
55053;SDS011;40954;45.668;18.980;2023-09-18T13:13:37;7.20;;;6.40;;
55053;SDS011;40954;45.668;18.980;2023-09-18T13:16:06;12.15;;;7.57;;
55053;SDS011;40954;45.668;18.980;2023-09-18T13:18:34;7.53;;;6.50;;
55053;SDS011;40954;45.668;18.980;2023-09-18T13:21:00;9.30;;;6.88;;
55053;SDS011;40954;45.668;18.980;2023-09-18T13:23:34;9.13;;;6.45;;
55053;SDS011;40954;45.668;18.980;2023-09-18T13:26:01;7.60;;;6.90;;
55053;SDS011;40954;45.668;18.980;2023-09-18T13:28:28;7.38;;;6.68;;
55053;SDS011;40954;45.668;18.980;2023-09-18T13:30:56;7.75;;;7.13;;
55053;SDS011;40954;45.668;18.980;2023-09-18T13:33:23;8.07;;;7.30;;
55053;SDS011;40954;45.668;18.980;2023-09-18T13:35:50;7.72;;;6.93;;
55053;SDS011;40954;45.668;18.980;2023-09-18T13:38:18;13.07;;;7.63;;
55053;SDS011;40954;45.668;18.980;2023-09-18T13:40:45;8.15;;;7.45;;
55053;SDS011;40954;45.668;18.980;2023-09-18T13:43:12;7.18;;;6.50;;
55053;SDS011;40954;45.668;18.980;2023-09-18T13:45:40;7.10;;;6.50;;
55053;SDS011;40954;45.668;18.980;2023-09-18T13:48:06;7.65;;;7.00;;
55053;SDS011;40954;45.668;18.980;2023-09-18T13:50:33;8.50;;;6.82;;
55053;SDS011;40954;45.668;18.980;2023-09-18T13:53:00;9.07;;;7.80;;
55053;SDS011;40954;45.668;18.980;2023-09-18T13:55:26;10.77;;;7.55;;
55053;SDS011;40954;45.668;18.980;2023-09-18T13:57:52;7.32;;;6.72;;
55053;SDS011;40954;45.668;18.980;2023-09-18T14:00:17;10.70;;;7.55;;
55053;SDS011;40954;45.668;18.980;2023-09-18T14:02:43;6.40;;;5.90;;
55053;SDS011;40954;45.668;18.980;2023-09-18T14:05:09;9.43;;;6.78;;
55053;SDS011;40954;45.668;18.980;2023-09-18T14:07:36;9.23;;;6.78;;
55053;SDS011;40954;45.668;18.980;2023-09-18T14:10:09;9.80;;;6.85;;
55053;SDS011;40954;45.668;18.980;2023-09-18T14:12:35;8.80;;;7.60;;
55053;SDS011;40954;45.668;18.980;2023-09-18T14:15:03;8.80;;;7.40;;
55053;SDS011;40954;45.668;18.980;2023-09-18T14:17:30;10.30;;;8.18;;
55053;SDS011;40954;45.668;18.980;2023-09-18T14:19:56;9.20;;;7.15;;
55053;SDS011;40954;45.668;18.980;2023-09-18T14:22:21;9.55;;;7.82;;
55053;SDS011;40954;45.668;18.980;2023-09-18T14:24:47;8.63;;;7.90;;
55053;SDS011;40954;45.668;18.980;2023-09-18T14:27:13;8.60;;;7.80;;
55053;SDS011;40954;45.668;18.980;2023-09-18T14:29:39;9.05;;;8.10;;
55053;SDS011;40954;45.668;18.980;2023-09-18T14:32:05;10.30;;;8.30;;
55053;SDS011;40954;45.668;18.980;2023-09-18T14:34:33;12.68;;;9.10;;
55053;SDS011;40954;45.668;18.980;2023-09-18T14:37:01;12.02;;;8.55;;
55053;SDS011;40954;45.668;18.980;2023-09-18T14:39:29;9.75;;;8.55;;
55053;SDS011;40954;45.668;18.980;2023-09-18T14:41:58;10.13;;;8.77;;
55053;SDS011;40954;45.668;18.980;2023-09-18T14:44:26;10.57;;;7.75;;
55053;SDS011;40954;45.668;18.980;2023-09-18T14:46:52;13.00;;;9.43;;
55053;SDS011;40954;45.668;18.980;2023-09-18T14:49:19;13.52;;;8.80;;